Terminal Aerodrome Forecast
Issued by NWS Cleveland, OH

Home | Current Version | Previous Version | Graphics & Text | Print | Product List | Glossary On
Versions: 1 2 3 4 5 6 7 8 9 10 11 12 13 14 15 16 17 18 19 20 21
000
FTUS41 KCLE 290542
TAFTOL
TAF
KTOL 290542Z 2906/3006 00000KT P6SM SCT120 OVC250
     FM291300 14005KT P6SM BKN120
     FM291900 17005KT P6SM BKN050 OVC120
     FM292200 12005KT P6SM VCTS BKN040CB OVC100
      TEMPO 2923/3001 2SM TSRA SCT025 OVC040CB
     FM300200 VRB03KT P6SM VCSH SCT035 OVC100=

USA.gov is the U.S. government's official web portal to all federal, state and local government web resources and services.